sensor_id;sensor_type;location;lat;lon;timestamp;P1;durP1;ratioP1;P2;durP2;ratioP2
44824;SDS011;30542;47.928;2.138;2023-07-22T00:04:23;2.17;;;1.70;;
44824;SDS011;30542;47.928;2.138;2023-07-22T00:09:23;1.60;;;1.50;;
44824;SDS011;30542;47.928;2.138;2023-07-22T00:14:24;2.42;;;1.73;;
44824;SDS011;30542;47.928;2.138;2023-07-22T00:19:24;3.73;;;1.70;;
44824;SDS011;30542;47.928;2.138;2023-07-22T00:24:24;2.90;;;1.60;;
44824;SDS011;30542;47.928;2.138;2023-07-22T00:29:25;9.80;;;2.47;;
44824;SDS011;30542;47.928;2.138;2023-07-22T00:34:25;4.20;;;2.20;;
44824;SDS011;30542;47.928;2.138;2023-07-22T00:39:26;4.55;;;2.42;;
44824;SDS011;30542;47.928;2.138;2023-07-22T00:44:26;3.13;;;1.63;;
44824;SDS011;30542;47.928;2.138;2023-07-22T00:49:27;4.07;;;1.92;;
44824;SDS011;30542;47.928;2.138;2023-07-22T00:54:30;4.15;;;1.70;;
44824;SDS011;30542;47.928;2.138;2023-07-22T00:59:31;3.63;;;1.92;;
44824;SDS011;30542;47.928;2.138;2023-07-22T01:04:32;3.92;;;1.90;;
44824;SDS011;30542;47.928;2.138;2023-07-22T01:09:35;3.50;;;1.90;;
44824;SDS011;30542;47.928;2.138;2023-07-22T01:14:37;2.22;;;1.90;;
44824;SDS011;30542;47.928;2.138;2023-07-22T01:19:39;3.45;;;2.10;;
44824;SDS011;30542;47.928;2.138;2023-07-22T01:24:39;1.80;;;1.60;;
44824;SDS011;30542;47.928;2.138;2023-07-22T01:29:39;3.03;;;1.73;;
44824;SDS011;30542;47.928;2.138;2023-07-22T01:34:40;3.10;;;1.73;;
44824;SDS011;30542;47.928;2.138;2023-07-22T01:39:40;2.80;;;1.90;;
44824;SDS011;30542;47.928;2.138;2023-07-22T01:44:41;2.50;;;1.70;;
44824;SDS011;30542;47.928;2.138;2023-07-22T01:49:43;3.03;;;1.97;;
44824;SDS011;30542;47.928;2.138;2023-07-22T01:54:44;1.92;;;1.70;;
44824;SDS011;30542;47.928;2.138;2023-07-22T01:59:44;1.97;;;1.60;;
44824;SDS011;30542;47.928;2.138;2023-07-22T02:04:44;2.07;;;1.80;;
44824;SDS011;30542;47.928;2.138;2023-07-22T02:09:45;3.08;;;1.58;;
44824;SDS011;30542;47.928;2.138;2023-07-22T02:14:45;1.92;;;1.15;;
44824;SDS011;30542;47.928;2.138;2023-07-22T02:19:45;2.57;;;1.17;;
44824;SDS011;30542;47.928;2.138;2023-07-22T02:24:46;2.47;;;1.50;;
44824;SDS011;30542;47.928;2.138;2023-07-22T02:29:46;1.73;;;1.63;;
44824;SDS011;30542;47.928;2.138;2023-07-22T02:34:47;2.83;;;1.70;;
44824;SDS011;30542;47.928;2.138;2023-07-22T02:39:47;2.00;;;1.83;;
44824;SDS011;30542;47.928;2.138;2023-07-22T02:44:47;1.60;;;1.50;;
44824;SDS011;30542;47.928;2.138;2023-07-22T02:49:48;1.83;;;1.63;;
44824;SDS011;30542;47.928;2.138;2023-07-22T03:00:13;4.05;;;1.85;;
44824;SDS011;30542;47.928;2.138;2023-07-22T03:05:23;2.95;;;1.70;;
44824;SDS011;30542;47.928;2.138;2023-07-22T03:10:25;2.60;;;1.92;;
44824;SDS011;30542;47.928;2.138;2023-07-22T03:15:26;1.80;;;1.52;;
44824;SDS011;30542;47.928;2.138;2023-07-22T03:20:27;1.50;;;1.40;;
44824;SDS011;30542;47.928;2.138;2023-07-22T03:25:27;2.47;;;1.53;;
44824;SDS011;30542;47.928;2.138;2023-07-22T03:30:27;1.47;;;1.37;;
44824;SDS011;30542;47.928;2.138;2023-07-22T03:35:28;2.57;;;1.20;;
44824;SDS011;30542;47.928;2.138;2023-07-22T03:40:28;1.87;;;1.77;;
44824;SDS011;30542;47.928;2.138;2023-07-22T03:45:30;2.30;;;2.10;;
44824;SDS011;30542;47.928;2.138;2023-07-22T03:50:31;2.00;;;1.80;;
44824;SDS011;30542;47.928;2.138;2023-07-22T03:55:31;1.53;;;1.40;;
44824;SDS011;30542;47.928;2.138;2023-07-22T04:00:31;1.70;;;1.60;;
44824;SDS011;30542;47.928;2.138;2023-07-22T04:05:32;1.57;;;1.07;;
44824;SDS011;30542;47.928;2.138;2023-07-22T04:10:32;1.33;;;1.23;;
44824;SDS011;30542;47.928;2.138;2023-07-22T04:15:32;1.57;;;1.37;;
44824;SDS011;30542;47.928;2.138;2023-07-22T04:20:33;1.70;;;1.60;;
44824;SDS011;30542;47.928;2.138;2023-07-22T04:25:33;1.77;;;1.60;;
44824;SDS011;30542;47.928;2.138;2023-07-22T04:30:34;1.88;;;1.70;;
44824;SDS011;30542;47.928;2.138;2023-07-22T04:35:37;2.22;;;1.80;;
44824;SDS011;30542;47.928;2.138;2023-07-22T04:40:44;1.65;;;1.55;;
44824;SDS011;30542;47.928;2.138;2023-07-22T04:45:44;2.47;;;1.75;;
44824;SDS011;30542;47.928;2.138;2023-07-22T04:50:47;1.38;;;1.27;;
44824;SDS011;30542;47.928;2.138;2023-07-22T04:55:48;1.50;;;1.33;;
44824;SDS011;30542;47.928;2.138;2023-07-22T05:00:48;2.38;;;1.77;;
44824;SDS011;30542;47.928;2.138;2023-07-22T05:05:49;1.50;;;1.40;;
44824;SDS011;30542;47.928;2.138;2023-07-22T05:10:49;2.72;;;1.75;;
44824;SDS011;30542;47.928;2.138;2023-07-22T05:15:49;1.80;;;1.60;;
44824;SDS011;30542;47.928;2.138;2023-07-22T05:20:50;1.30;;;1.20;;
44824;SDS011;30542;47.928;2.138;2023-07-22T05:25:51;1.57;;;1.47;;
44824;SDS011;30542;47.928;2.138;2023-07-22T05:30:52;1.42;;;1.33;;
44824;SDS011;30542;47.928;2.138;2023-07-22T05:35:52;2.13;;;1.30;;
44824;SDS011;30542;47.928;2.138;2023-07-22T05:40:53;1.67;;;1.58;;
44824;SDS011;30542;47.928;2.138;2023-07-22T05:45:53;2.45;;;1.55;;
44824;SDS011;30542;47.928;2.138;2023-07-22T05:50:53;1.85;;;1.60;;
44824;SDS011;30542;47.928;2.138;2023-07-22T05:55:54;1.63;;;1.50;;
44824;SDS011;30542;47.928;2.138;2023-07-22T06:00:54;2.10;;;1.80;;
44824;SDS011;30542;47.928;2.138;2023-07-22T06:05:55;1.23;;;1.13;;
44824;SDS011;30542;47.928;2.138;2023-07-22T06:10:56;1.80;;;1.70;;
44824;SDS011;30542;47.928;2.138;2023-07-22T06:15:56;1.80;;;1.70;;
44824;SDS011;30542;47.928;2.138;2023-07-22T06:20:57;1.30;;;1.20;;
44824;SDS011;30542;47.928;2.138;2023-07-22T06:25:57;2.33;;;1.27;;
44824;SDS011;30542;47.928;2.138;2023-07-22T06:30:57;1.53;;;1.43;;
44824;SDS011;30542;47.928;2.138;2023-07-22T06:35:58;1.60;;;1.50;;
44824;SDS011;30542;47.928;2.138;2023-07-22T06:40:59;2.22;;;1.42;;
44824;SDS011;30542;47.928;2.138;2023-07-22T06:45:59;1.57;;;1.37;;
44824;SDS011;30542;47.928;2.138;2023-07-22T06:51:00;1.65;;;1.50;;
44824;SDS011;30542;47.928;2.138;2023-07-22T06:56:00;1.60;;;1.33;;
44824;SDS011;30542;47.928;2.138;2023-07-22T07:01:00;1.77;;;1.53;;
44824;SDS011;30542;47.928;2.138;2023-07-22T07:06:01;2.30;;;1.67;;
44824;SDS011;30542;47.928;2.138;2023-07-22T07:11:01;1.65;;;1.55;;
44824;SDS011;30542;47.928;2.138;2023-07-22T07:21:22;1.40;;;1.30;;
44824;SDS011;30542;47.928;2.138;2023-07-22T07:26:22;1.40;;;1.30;;
44824;SDS011;30542;47.928;2.138;2023-07-22T07:31:23;3.33;;;2.28;;
44824;SDS011;30542;47.928;2.138;2023-07-22T07:36:23;2.07;;;1.80;;
44824;SDS011;30542;47.928;2.138;2023-07-22T07:41:23;1.65;;;1.50;;
44824;SDS011;30542;47.928;2.138;2023-07-22T07:46:26;2.33;;;1.80;;
44824;SDS011;30542;47.928;2.138;2023-07-22T07:51:27;2.08;;;1.98;;
44824;SDS011;30542;47.928;2.138;2023-07-22T07:56:29;2.88;;;1.95;;
44824;SDS011;30542;47.928;2.138;2023-07-22T08:01:29;3.08;;;1.60;;
44824;SDS011;30542;47.928;2.138;2023-07-22T08:06:30;2.77;;;1.80;;
44824;SDS011;30542;47.928;2.138;2023-07-22T08:11:30;2.13;;;1.93;;
44824;SDS011;30542;47.928;2.138;2023-07-22T08:16:31;1.75;;;1.65;;
44824;SDS011;30542;47.928;2.138;2023-07-22T08:21:31;1.80;;;1.70;;
44824;SDS011;30542;47.928;2.138;2023-07-22T08:26:31;2.27;;;2.00;;
44824;SDS011;30542;47.928;2.138;2023-07-22T08:31:31;2.40;;;2.13;;
44824;SDS011;30542;47.928;2.138;2023-07-22T08:36:32;1.80;;;1.70;;
44824;SDS011;30542;47.928;2.138;2023-07-22T08:41:32;2.53;;;2.33;;
44824;SDS011;30542;47.928;2.138;2023-07-22T08:46:33;1.95;;;1.70;;
44824;SDS011;30542;47.928;2.138;2023-07-22T08:51:34;5.25;;;2.88;;
44824;SDS011;30542;47.928;2.138;2023-07-22T08:56:37;4.20;;;2.35;;
44824;SDS011;30542;47.928;2.138;2023-07-22T09:01:38;2.88;;;2.20;;
44824;SDS011;30542;47.928;2.138;2023-07-22T09:06:39;2.28;;;2.10;;
44824;SDS011;30542;47.928;2.138;2023-07-22T09:11:42;3.55;;;2.65;;
44824;SDS011;30542;47.928;2.138;2023-07-22T09:16:43;3.60;;;2.20;;
44824;SDS011;30542;47.928;2.138;2023-07-22T09:21:44;9.52;;;2.83;;
44824;SDS011;30542;47.928;2.138;2023-07-22T09:26:44;4.13;;;2.65;;
44824;SDS011;30542;47.928;2.138;2023-07-22T09:31:48;4.00;;;2.50;;
44824;SDS011;30542;47.928;2.138;2023-07-22T09:36:54;2.38;;;2.17;;
44824;SDS011;30542;47.928;2.138;2023-07-22T09:41:56;2.63;;;2.42;;
44824;SDS011;30542;47.928;2.138;2023-07-22T09:46:59;2.53;;;2.30;;
44824;SDS011;30542;47.928;2.138;2023-07-22T09:52:09;2.13;;;1.90;;
44824;SDS011;30542;47.928;2.138;2023-07-22T09:57:12;2.45;;;2.25;;
44824;SDS011;30542;47.928;2.138;2023-07-22T10:02:13;4.50;;;2.35;;
44824;SDS011;30542;47.928;2.138;2023-07-22T10:07:16;4.75;;;2.70;;
44824;SDS011;30542;47.928;2.138;2023-07-22T10:12:19;11.05;;;3.40;;
44824;SDS011;30542;47.928;2.138;2023-07-22T10:17:19;6.05;;;2.53;;
44824;SDS011;30542;47.928;2.138;2023-07-22T10:22:21;2.85;;;2.63;;
44824;SDS011;30542;47.928;2.138;2023-07-22T10:27:21;5.13;;;2.83;;
44824;SDS011;30542;47.928;2.138;2023-07-22T10:32:23;3.42;;;2.60;;
44824;SDS011;30542;47.928;2.138;2023-07-22T10:37:31;5.68;;;2.67;;
44824;SDS011;30542;47.928;2.138;2023-07-22T10:42:33;3.35;;;2.25;;
44824;SDS011;30542;47.928;2.138;2023-07-22T10:47:34;4.63;;;3.03;;
44824;SDS011;30542;47.928;2.138;2023-07-22T10:52:40;7.13;;;3.25;;
44824;SDS011;30542;47.928;2.138;2023-07-22T10:57:50;6.00;;;3.43;;
44824;SDS011;30542;47.928;2.138;2023-07-22T11:03:08;5.55;;;2.80;;
44824;SDS011;30542;47.928;2.138;2023-07-22T11:08:09;4.15;;;2.58;;
44824;SDS011;30542;47.928;2.138;2023-07-22T11:13:10;4.70;;;3.55;;
44824;SDS011;30542;47.928;2.138;2023-07-22T11:18:10;3.83;;;2.50;;
44824;SDS011;30542;47.928;2.138;2023-07-22T11:23:10;3.40;;;2.72;;
44824;SDS011;30542;47.928;2.138;2023-07-22T11:28:13;4.63;;;2.78;;
44824;SDS011;30542;47.928;2.138;2023-07-22T11:33:14;4.60;;;2.83;;
44824;SDS011;30542;47.928;2.138;2023-07-22T11:38:14;3.97;;;2.73;;
44824;SDS011;30542;47.928;2.138;2023-07-22T11:43:14;3.73;;;2.97;;
44824;SDS011;30542;47.928;2.138;2023-07-22T11:48:15;3.60;;;2.90;;
44824;SDS011;30542;47.928;2.138;2023-07-22T11:53:15;4.22;;;2.80;;
44824;SDS011;30542;47.928;2.138;2023-07-22T11:58:23;4.27;;;2.80;;
44824;SDS011;30542;47.928;2.138;2023-07-22T12:03:30;4.13;;;2.85;;
44824;SDS011;30542;47.928;2.138;2023-07-22T12:08:35;3.05;;;2.80;;
44824;SDS011;30542;47.928;2.138;2023-07-22T12:13:36;3.30;;;2.63;;
44824;SDS011;30542;47.928;2.138;2023-07-22T12:18:41;4.03;;;2.88;;
44824;SDS011;30542;47.928;2.138;2023-07-22T12:23:42;3.03;;;2.70;;
44824;SDS011;30542;47.928;2.138;2023-07-22T12:28:43;4.00;;;2.90;;
44824;SDS011;30542;47.928;2.138;2023-07-22T12:33:43;3.10;;;2.80;;
44824;SDS011;30542;47.928;2.138;2023-07-22T12:38:43;2.90;;;2.70;;
44824;SDS011;30542;47.928;2.138;2023-07-22T12:43:44;2.67;;;2.45;;
44824;SDS011;30542;47.928;2.138;2023-07-22T12:48:44;3.03;;;2.43;;
44824;SDS011;30542;47.928;2.138;2023-07-22T12:53:44;3.90;;;2.80;;
44824;SDS011;30542;47.928;2.138;2023-07-22T12:58:45;3.20;;;2.90;;
44824;SDS011;30542;47.928;2.138;2023-07-22T13:03:45;2.70;;;2.50;;
44824;SDS011;30542;47.928;2.138;2023-07-22T13:08:45;2.60;;;2.30;;
44824;SDS011;30542;47.928;2.138;2023-07-22T13:13:46;2.50;;;2.30;;
44824;SDS011;30542;47.928;2.138;2023-07-22T13:18:46;3.70;;;2.73;;
44824;SDS011;30542;47.928;2.138;2023-07-22T13:23:46;3.78;;;2.92;;
44824;SDS011;30542;47.928;2.138;2023-07-22T13:28:47;2.90;;;2.60;;
44824;SDS011;30542;47.928;2.138;2023-07-22T13:33:47;3.23;;;2.47;;
44824;SDS011;30542;47.928;2.138;2023-07-22T13:38:47;2.17;;;1.98;;
44824;SDS011;30542;47.928;2.138;2023-07-22T13:43:47;2.67;;;2.47;;
44824;SDS011;30542;47.928;2.138;2023-07-22T13:48:48;2.40;;;2.20;;
44824;SDS011;30542;47.928;2.138;2023-07-22T13:53:48;2.90;;;2.67;;
44824;SDS011;30542;47.928;2.138;2023-07-22T13:58:49;2.13;;;1.93;;
44824;SDS011;30542;47.928;2.138;2023-07-22T14:03:49;2.27;;;2.10;;
44824;SDS011;30542;47.928;2.138;2023-07-22T14:08:49;1.93;;;1.83;;
44824;SDS011;30542;47.928;2.138;2023-07-22T14:13:50;3.23;;;2.43;;
44824;SDS011;30542;47.928;2.138;2023-07-22T14:18:52;2.92;;;2.15;;
44824;SDS011;30542;47.928;2.138;2023-07-22T14:23:52;2.33;;;2.13;;
44824;SDS011;30542;47.928;2.138;2023-07-22T14:28:53;2.10;;;1.90;;
44824;SDS011;30542;47.928;2.138;2023-07-22T14:33:53;2.28;;;2.17;;
44824;SDS011;30542;47.928;2.138;2023-07-22T14:38:53;2.67;;;2.43;;
44824;SDS011;30542;47.928;2.138;2023-07-22T14:43:54;2.27;;;2.07;;
44824;SDS011;30542;47.928;2.138;2023-07-22T14:48:54;2.10;;;2.00;;
44824;SDS011;30542;47.928;2.138;2023-07-22T14:53:54;2.27;;;2.07;;
44824;SDS011;30542;47.928;2.138;2023-07-22T14:58:55;2.30;;;2.10;;
44824;SDS011;30542;47.928;2.138;2023-07-22T15:03:55;2.50;;;2.07;;
44824;SDS011;30542;47.928;2.138;2023-07-22T15:08:55;2.27;;;2.07;;
44824;SDS011;30542;47.928;2.138;2023-07-22T15:13:56;3.25;;;2.30;;
44824;SDS011;30542;47.928;2.138;2023-07-22T15:18:56;2.30;;;1.88;;
44824;SDS011;30542;47.928;2.138;2023-07-22T15:23:57;2.10;;;1.98;;
44824;SDS011;30542;47.928;2.138;2023-07-22T15:28:57;1.93;;;1.83;;
44824;SDS011;30542;47.928;2.138;2023-07-22T15:33:57;2.33;;;2.13;;
44824;SDS011;30542;47.928;2.138;2023-07-22T15:38:58;2.13;;;2.00;;
44824;SDS011;30542;47.928;2.138;2023-07-22T15:43:58;1.93;;;1.83;;
44824;SDS011;30542;47.928;2.138;2023-07-22T15:48:58;1.67;;;1.43;;
44824;SDS011;30542;47.928;2.138;2023-07-22T15:53:59;2.17;;;2.00;;
44824;SDS011;30542;47.928;2.138;2023-07-22T15:58:59;2.03;;;1.93;;
44824;SDS011;30542;47.928;2.138;2023-07-22T16:03:59;2.10;;;2.00;;
44824;SDS011;30542;47.928;2.138;2023-07-22T16:08:59;2.15;;;1.90;;
44824;SDS011;30542;47.928;2.138;2023-07-22T16:14:00;2.10;;;1.90;;
44824;SDS011;30542;47.928;2.138;2023-07-22T16:19:01;2.07;;;1.90;;
44824;SDS011;30542;47.928;2.138;2023-07-22T16:24:01;2.30;;;2.10;;
44824;SDS011;30542;47.928;2.138;2023-07-22T16:29:01;1.97;;;1.80;;
44824;SDS011;30542;47.928;2.138;2023-07-22T16:34:02;2.10;;;1.88;;
44824;SDS011;30542;47.928;2.138;2023-07-22T16:39:03;1.98;;;1.77;;
44824;SDS011;30542;47.928;2.138;2023-07-22T16:44:03;1.73;;;1.63;;
44824;SDS011;30542;47.928;2.138;2023-07-22T16:49:04;1.85;;;1.75;;
44824;SDS011;30542;47.928;2.138;2023-07-22T16:54:05;1.92;;;1.70;;
44824;SDS011;30542;47.928;2.138;2023-07-22T16:59:05;1.77;;;1.60;;
44824;SDS011;30542;47.928;2.138;2023-07-22T17:04:06;1.90;;;1.73;;
44824;SDS011;30542;47.928;2.138;2023-07-22T17:09:10;2.28;;;2.08;;
44824;SDS011;30542;47.928;2.138;2023-07-22T17:14:13;1.60;;;1.50;;
44824;SDS011;30542;47.928;2.138;2023-07-22T17:19:14;2.27;;;2.13;;
44824;SDS011;30542;47.928;2.138;2023-07-22T17:24:14;2.63;;;1.90;;
44824;SDS011;30542;47.928;2.138;2023-07-22T17:29:14;1.57;;;1.43;;
44824;SDS011;30542;47.928;2.138;2023-07-22T17:34:15;1.50;;;1.40;;
44824;SDS011;30542;47.928;2.138;2023-07-22T17:39:15;1.83;;;1.73;;
44824;SDS011;30542;47.928;2.138;2023-07-22T17:44:15;2.00;;;1.80;;
44824;SDS011;30542;47.928;2.138;2023-07-22T17:49:17;1.85;;;1.75;;
44824;SDS011;30542;47.928;2.138;2023-07-22T17:54:17;2.87;;;1.90;;
44824;SDS011;30542;47.928;2.138;2023-07-22T17:59:18;1.63;;;1.53;;
44824;SDS011;30542;47.928;2.138;2023-07-22T18:04:18;1.80;;;1.70;;
44824;SDS011;30542;47.928;2.138;2023-07-22T18:09:18;2.13;;;1.97;;
44824;SDS011;30542;47.928;2.138;2023-07-22T18:14:19;1.50;;;1.40;;
44824;SDS011;30542;47.928;2.138;2023-07-22T18:19:19;2.80;;;2.03;;
44824;SDS011;30542;47.928;2.138;2023-07-22T18:24:19;1.93;;;1.77;;
44824;SDS011;30542;47.928;2.138;2023-07-22T18:29:20;2.50;;;1.47;;
44824;SDS011;30542;47.928;2.138;2023-07-22T18:34:20;2.93;;;1.60;;
44824;SDS011;30542;47.928;2.138;2023-07-22T18:39:21;2.17;;;1.70;;
44824;SDS011;30542;47.928;2.138;2023-07-22T18:44:23;1.85;;;1.33;;
44824;SDS011;30542;47.928;2.138;2023-07-22T18:49:23;2.10;;;1.90;;
44824;SDS011;30542;47.928;2.138;2023-07-22T18:54:24;2.47;;;1.67;;
44824;SDS011;30542;47.928;2.138;2023-07-22T18:59:24;2.37;;;1.90;;
44824;SDS011;30542;47.928;2.138;2023-07-22T19:04:25;1.80;;;1.70;;
44824;SDS011;30542;47.928;2.138;2023-07-22T19:09:25;2.13;;;1.65;;
44824;SDS011;30542;47.928;2.138;2023-07-22T19:14:26;1.70;;;1.60;;
44824;SDS011;30542;47.928;2.138;2023-07-22T19:19:26;2.13;;;1.93;;
44824;SDS011;30542;47.928;2.138;2023-07-22T19:24:26;1.77;;;1.67;;
44824;SDS011;30542;47.928;2.138;2023-07-22T19:29:27;1.65;;;1.55;;
44824;SDS011;30542;47.928;2.138;2023-07-22T19:34:27;2.13;;;1.83;;
44824;SDS011;30542;47.928;2.138;2023-07-22T19:39:28;2.30;;;1.47;;
44824;SDS011;30542;47.928;2.138;2023-07-22T19:44:28;1.73;;;1.63;;
44824;SDS011;30542;47.928;2.138;2023-07-22T19:49:28;1.70;;;1.30;;
44824;SDS011;30542;47.928;2.138;2023-07-22T19:54:29;2.30;;;1.77;;
44824;SDS011;30542;47.928;2.138;2023-07-22T19:59:29;1.30;;;1.20;;
44824;SDS011;30542;47.928;2.138;2023-07-22T20:04:29;1.95;;;1.75;;
44824;SDS011;30542;47.928;2.138;2023-07-22T20:09:29;1.97;;;1.70;;
44824;SDS011;30542;47.928;2.138;2023-07-22T20:14:30;2.90;;;1.87;;
44824;SDS011;30542;47.928;2.138;2023-07-22T20:19:30;1.80;;;1.70;;
44824;SDS011;30542;47.928;2.138;2023-07-22T20:24:32;1.27;;;1.10;;
44824;SDS011;30542;47.928;2.138;2023-07-22T20:29:35;1.65;;;1.48;;
44824;SDS011;30542;47.928;2.138;2023-07-22T20:34:35;2.27;;;1.40;;
44824;SDS011;30542;47.928;2.138;2023-07-22T20:39:36;1.55;;;1.45;;
44824;SDS011;30542;47.928;2.138;2023-07-22T20:44:36;1.20;;;1.10;;
44824;SDS011;30542;47.928;2.138;2023-07-22T20:49:36;1.20;;;1.10;;
44824;SDS011;30542;47.928;2.138;2023-07-22T20:54:37;1.37;;;1.17;;
44824;SDS011;30542;47.928;2.138;2023-07-22T20:59:37;1.50;;;1.40;;
44824;SDS011;30542;47.928;2.138;2023-07-22T21:04:39;1.75;;;1.40;;
44824;SDS011;30542;47.928;2.138;2023-07-22T21:09:40;1.70;;;1.60;;
44824;SDS011;30542;47.928;2.138;2023-07-22T21:14:41;3.92;;;1.40;;
44824;SDS011;30542;47.928;2.138;2023-07-22T21:19:41;1.37;;;1.17;;
44824;SDS011;30542;47.928;2.138;2023-07-22T21:24:41;1.42;;;1.30;;
44824;SDS011;30542;47.928;2.138;2023-07-22T21:29:42;1.20;;;1.10;;
44824;SDS011;30542;47.928;2.138;2023-07-22T21:34:43;1.40;;;1.00;;
44824;SDS011;30542;47.928;2.138;2023-07-22T21:39:43;1.10;;;1.00;;
44824;SDS011;30542;47.928;2.138;2023-07-22T21:44:46;2.07;;;1.27;;
44824;SDS011;30542;47.928;2.138;2023-07-22T21:49:46;1.00;;;0.90;;
44824;SDS011;30542;47.928;2.138;2023-07-22T21:54:47;1.27;;;1.17;;
44824;SDS011;30542;47.928;2.138;2023-07-22T21:59:47;2.50;;;1.13;;
44824;SDS011;30542;47.928;2.138;2023-07-22T22:04:47;1.03;;;0.93;;
44824;SDS011;30542;47.928;2.138;2023-07-22T22:09:48;1.55;;;1.05;;
44824;SDS011;30542;47.928;2.138;2023-07-22T22:14:52;1.40;;;1.10;;
44824;SDS011;30542;47.928;2.138;2023-07-22T22:19:54;1.00;;;0.95;;
44824;SDS011;30542;47.928;2.138;2023-07-22T22:24:54;1.35;;;0.80;;
44824;SDS011;30542;47.928;2.138;2023-07-22T22:29:54;1.47;;;0.87;;
44824;SDS011;30542;47.928;2.138;2023-07-22T22:34:55;0.90;;;0.77;;
44824;SDS011;30542;47.928;2.138;2023-07-22T22:39:55;0.90;;;0.90;;
44824;SDS011;30542;47.928;2.138;2023-07-22T22:44:56;1.83;;;1.00;;
44824;SDS011;30542;47.928;2.138;2023-07-22T22:49:56;1.13;;;1.02;;
44824;SDS011;30542;47.928;2.138;2023-07-22T22:54:56;1.27;;;0.90;;
44824;SDS011;30542;47.928;2.138;2023-07-22T22:59:57;0.80;;;0.70;;
44824;SDS011;30542;47.928;2.138;2023-07-22T23:04:57;1.03;;;0.83;;
44824;SDS011;30542;47.928;2.138;2023-07-22T23:09:58;0.80;;;0.70;;
44824;SDS011;30542;47.928;2.138;2023-07-22T23:14:58;1.27;;;0.75;;
44824;SDS011;30542;47.928;2.138;2023-07-22T23:19:59;1.42;;;0.98;;
44824;SDS011;30542;47.928;2.138;2023-07-22T23:24:59;0.90;;;0.80;;
44824;SDS011;30542;47.928;2.138;2023-07-22T23:30:00;1.85;;;1.02;;
44824;SDS011;30542;47.928;2.138;2023-07-22T23:35:04;1.67;;;0.63;;
44824;SDS011;30542;47.928;2.138;2023-07-22T23:40:05;1.23;;;0.82;;
44824;SDS011;30542;47.928;2.138;2023-07-22T23:45:07;1.30;;;0.70;;
44824;SDS011;30542;47.928;2.138;2023-07-22T23:50:08;0.75;;;0.60;;
44824;SDS011;30542;47.928;2.138;2023-07-22T23:55:08;0.95;;;0.65;;
